createdAt,value
2022-09-04T00:01:59.942Z,99952.72
2022-09-04T00:04:23.491Z,99962.50
2022-09-04T00:06:32.569Z,99948.03
2022-09-04T00:08:57.160Z,99948.72
2022-09-04T00:11:11.136Z,99949.00
2022-09-04T00:13:36.935Z,99959.16
2022-09-04T00:15:44.425Z,99954.16
2022-09-04T00:17:58.683Z,99958.28
2022-09-04T00:20:06.776Z,99947.72
2022-09-04T00:22:34.203Z,99949.72
2022-09-04T00:24:45.410Z,99951.75
2022-09-04T00:26:56.528Z,99950.19
2022-09-04T00:29:27.180Z,99950.91
2022-09-04T00:32:12.842Z,99951.94
2022-09-04T00:34:47.093Z,99957.69
2022-09-04T00:36:54.749Z,99952.72
2022-09-04T00:39:13.842Z,99945.50
2022-09-04T00:41:31.249Z,99948.72
2022-09-04T00:44:06.927Z,99966.00
2022-09-04T00:46:27.323Z,99961.44
2022-09-04T00:48:59.690Z,99966.69
2022-09-04T00:51:32.466Z,99971.84
2022-09-04T00:54:12.065Z,99972.91
2022-09-04T00:56:27.121Z,99981.34
2022-09-04T00:58:31.977Z,99987.06
2022-09-04T01:00:37.250Z,99989.69
2022-09-04T01:03:00.664Z,99998.16
2022-09-04T01:05:19.597Z,99996.31
2022-09-04T01:07:59.459Z,100000.00
2022-09-04T01:10:10.447Z,99993.16
2022-09-04T01:12:37.359Z,99998.59
2022-09-04T01:14:49.136Z,99990.28
2022-09-04T01:17:23.829Z,99996.19
2022-09-04T01:19:47.500Z,99990.38
2022-09-04T01:22:09.919Z,99996.00
2022-09-04T01:24:33.921Z,99988.72
2022-09-04T01:26:56.761Z,99977.91
2022-09-04T01:29:17.041Z,99975.31
2022-09-04T01:31:37.784Z,99977.41
2022-09-04T01:33:55.056Z,99982.44
2022-09-04T01:36:10.987Z,99981.72
2022-09-04T01:38:38.056Z,99977.22
2022-09-04T01:40:43.605Z,99969.94
2022-09-04T01:42:55.192Z,99974.22
2022-09-04T01:44:57.588Z,99973.16
2022-09-04T01:47:08.748Z,99972.56
2022-09-04T01:49:31.319Z,99971.50
2022-09-04T01:51:54.674Z,99964.22
2022-09-04T01:54:04.371Z,99969.66
2022-09-04T01:56:20.076Z,99976.44
2022-09-04T01:58:40.610Z,99969.25
2022-09-04T02:00:55.488Z,99977.19
2022-09-04T02:03:22.789Z,99977.44
2022-09-04T02:05:24.797Z,99983.13
2022-09-04T02:07:36.866Z,99976.56
2022-09-04T02:10:08.596Z,99973.88
2022-09-04T02:12:52.624Z,99971.59
2022-09-04T02:15:04.390Z,99976.56
2022-09-04T02:17:34.420Z,99974.03
2022-09-04T02:20:07.551Z,99973.06
2022-09-04T02:22:46.894Z,99973.56
2022-09-04T02:25:15.436Z,99976.88
2022-09-04T02:27:32.099Z,99976.19
2022-09-04T02:29:48.853Z,99977.59
2022-09-04T02:31:55.384Z,99983.91
2022-09-04T02:34:13.774Z,99981.19
2022-09-04T02:36:28.601Z,99977.66
2022-09-04T02:38:57.488Z,99981.72
2022-09-04T02:41:05.256Z,99980.84
2022-09-04T02:43:27.939Z,99980.66
2022-09-04T02:45:37.703Z,99983.75
2022-09-04T02:47:46.156Z,99978.06
2022-09-04T02:49:59.848Z,99972.97
2022-09-04T02:52:13.628Z,99976.72
2022-09-04T02:54:34.252Z,99972.13
2022-09-04T02:56:57.481Z,99964.59
2022-09-04T02:59:14.032Z,99956.69
2022-09-04T03:01:52.109Z,99962.09
2022-09-04T03:04:24.555Z,99963.03
2022-09-04T03:06:54.202Z,99965.94
2022-09-04T03:09:04.684Z,99967.31
2022-09-04T03:11:24.203Z,99972.16
2022-09-04T03:13:47.765Z,99970.66
2022-09-04T03:16:04.285Z,99968.53
2022-09-04T03:18:20.624Z,99966.28
2022-09-04T03:20:31.723Z,99976.88
2022-09-04T03:22:43.138Z,99967.94
2022-09-04T03:25:22.444Z,99978.78
2022-09-04T03:27:26.944Z,99973.09
2022-09-04T03:30:06.371Z,99972.50
2022-09-04T03:32:18.855Z,99975.91
2022-09-04T03:34:52.496Z,99984.22
2022-09-04T03:37:20.904Z,99981.75
2022-09-04T03:39:31.081Z,99988.84
2022-09-04T03:41:58.109Z,99986.13
2022-09-04T03:44:13.518Z,99987.72
2022-09-04T03:46:33.263Z,99980.53
2022-09-04T03:49:02.305Z,99998.50
2022-09-04T03:51:16.651Z,99986.84
2022-09-04T03:53:39.099Z,99990.72
2022-09-04T03:56:08.700Z,99993.06
2022-09-04T03:58:19.615Z,99994.13
2022-09-04T04:00:22.756Z,99989.56
2022-09-04T04:02:50.917Z,99988.66
2022-09-04T04:05:22.313Z,99994.47
2022-09-04T04:07:41.354Z,99993.50
2022-09-04T04:09:52.156Z,99990.53
2022-09-04T04:12:05.256Z,100002.63
2022-09-04T04:14:19.435Z,99997.81
2022-09-04T04:16:40.792Z,99999.19
2022-09-04T04:19:07.182Z,100015.38
2022-09-04T04:21:27.968Z,100008.84
2022-09-04T04:23:47.960Z,100010.84
2022-09-04T04:26:44.762Z,100011.69
2022-09-04T04:29:09.695Z,100014.09
2022-09-04T04:31:34.848Z,100018.66
2022-09-04T04:34:06.391Z,100019.41
2022-09-04T04:36:49.805Z,100026.50
2022-09-04T04:39:23.335Z,100021.69
2022-09-04T04:42:05.996Z,100024.94
2022-09-04T04:44:16.938Z,100029.66
2022-09-04T04:46:27.832Z,100028.69
2022-09-04T04:48:54.622Z,100030.16
2022-09-04T04:51:42.897Z,100021.75
2022-09-04T04:53:57.511Z,100025.63
2022-09-04T04:56:15.363Z,100030.88
2022-09-04T04:58:28.660Z,100025.84
2022-09-04T05:00:46.876Z,100035.19
2022-09-04T05:02:52.162Z,100030.97
2022-09-04T05:04:54.817Z,100029.75
2022-09-04T05:07:06.838Z,100031.41
2022-09-04T05:09:15.537Z,100038.91
2022-09-04T05:11:26.970Z,100049.44
2022-09-04T05:13:52.727Z,100040.88
2022-09-04T05:16:09.423Z,100048.28
2022-09-04T05:18:20.963Z,100040.66
2022-09-04T05:20:52.083Z,100047.34
2022-09-04T05:23:17.116Z,100046.28
2022-09-04T05:25:22.154Z,100050.75
2022-09-04T05:27:24.155Z,100045.91
2022-09-04T05:29:55.356Z,100051.06
2022-09-04T05:32:10.548Z,100049.69
2022-09-04T05:34:19.145Z,100051.44
2022-09-04T05:36:40.671Z,100056.59
2022-09-04T05:38:54.348Z,100061.94
2022-09-04T05:41:07.887Z,100064.84
2022-09-04T05:43:28.020Z,100059.56
2022-09-04T05:45:50.173Z,100072.00
2022-09-04T05:48:09.801Z,100065.69
2022-09-04T05:50:31.855Z,100059.19
2022-09-04T05:52:39.927Z,100071.38
2022-09-04T05:54:54.056Z,100063.28
2022-09-04T05:57:25.961Z,100061.88
2022-09-04T05:59:47.152Z,100069.16
2022-09-04T06:01:59.178Z,100071.75
2022-09-04T06:04:49.832Z,100070.75
2022-09-04T06:07:13.521Z,100074.13
2022-09-04T06:09:50.646Z,100071.78
2022-09-04T06:12:18.824Z,100071.34
2022-09-04T06:14:33.584Z,100066.34
2022-09-04T06:17:14.393Z,100064.50
2022-09-04T06:19:25.432Z,100063.53
2022-09-04T06:22:06.927Z,100071.50
2022-09-04T06:24:36.960Z,100069.13
2022-09-04T06:27:34.822Z,100061.13
2022-09-04T06:30:03.227Z,100070.75
2022-09-04T06:32:31.744Z,100079.34
2022-09-04T06:35:14.590Z,100076.69
2022-09-04T06:37:45.724Z,100079.84
2022-09-04T06:40:07.678Z,100083.19
2022-09-04T06:42:13.819Z,100084.28
2022-09-04T06:44:40.154Z,100088.06
2022-09-04T06:46:44.964Z,100077.06
2022-09-04T06:48:47.008Z,100073.06
2022-09-04T06:50:52.159Z,100079.31
2022-09-04T06:53:09.574Z,100078.19
2022-09-04T06:55:29.375Z,100072.41
2022-09-04T06:57:50.023Z,100071.56
2022-09-04T06:59:55.229Z,100078.97
2022-09-04T07:02:37.601Z,100083.72
2022-09-04T07:04:59.672Z,100081.34
2022-09-04T07:07:27.704Z,100071.50
2022-09-04T07:09:38.648Z,100075.50
2022-09-04T07:11:43.457Z,100079.88
2022-09-04T07:13:50.011Z,100081.34
2022-09-04T07:16:20.803Z,100088.97
2022-09-04T07:18:32.174Z,100082.50
2022-09-04T07:20:52.435Z,100076.81
2022-09-04T07:23:16.950Z,100080.41
2022-09-04T07:25:27.670Z,100078.69
2022-09-04T07:28:00.966Z,100084.78
2022-09-04T07:30:09.625Z,100082.19
2022-09-04T07:32:34.400Z,100079.69
2022-09-04T07:34:57.786Z,100085.31
2022-09-04T07:37:23.538Z,100077.84
2022-09-04T07:39:36.853Z,100085.66
2022-09-04T07:42:09.982Z,100085.66
2022-09-04T07:45:02.701Z,100088.47
2022-09-04T07:47:14.401Z,100092.94
2022-09-04T07:49:35.563Z,100095.19
2022-09-04T07:51:54.676Z,100093.66
2022-09-04T07:54:14.619Z,100094.16
2022-09-04T07:57:00.326Z,100097.16
2022-09-04T07:59:31.083Z,100095.25
2022-09-04T08:01:45.336Z,100101.28
2022-09-04T08:04:03.203Z,100097.28
2022-09-04T08:06:23.860Z,100103.25
2022-09-04T08:09:23.125Z,100110.47
2022-09-04T08:11:37.340Z,100104.06
2022-09-04T08:13:42.056Z,100102.50
2022-09-04T08:16:11.905Z,100104.94
2022-09-04T08:18:42.206Z,100106.66
2022-09-04T08:20:49.364Z,100110.28
2022-09-04T08:23:00.462Z,100101.00
2022-09-04T08:25:29.628Z,100098.63
2022-09-04T08:28:04.032Z,100100.69
2022-09-04T08:30:08.622Z,100095.03
2022-09-04T08:32:43.006Z,100096.88
2022-09-04T08:34:48.106Z,100099.44
2022-09-04T08:36:54.078Z,100100.78
2022-09-04T08:39:12.051Z,100101.56
2022-09-04T08:41:48.450Z,100109.50
2022-09-04T08:44:16.622Z,100093.09
2022-09-04T08:46:31.865Z,100102.25
2022-09-04T08:48:49.123Z,100096.66
2022-09-04T08:51:10.089Z,100094.53
2022-09-04T08:53:18.955Z,100090.44
2022-09-04T08:55:49.286Z,100095.53
2022-09-04T08:58:06.261Z,100090.81
2022-09-04T09:00:17.453Z,100098.19
2022-09-04T09:02:28.434Z,100098.22
2022-09-04T09:04:47.961Z,100089.13
2022-09-04T09:07:02.203Z,100090.88
2022-09-04T09:09:19.683Z,100085.25
2022-09-04T09:11:21.810Z,100091.50
2022-09-04T09:13:42.799Z,100092.50
2022-09-04T09:15:56.893Z,100091.78
2022-09-04T09:18:16.491Z,100097.16
2022-09-04T09:20:29.177Z,100080.91
2022-09-04T09:22:40.895Z,100084.25
2022-09-04T09:24:58.156Z,100086.09
2022-09-04T09:27:03.174Z,100080.19
2022-09-04T09:29:33.549Z,100083.34
2022-09-04T09:31:52.920Z,100076.66
2022-09-04T09:34:32.196Z,100084.50
2022-09-04T09:37:02.997Z,100084.19
2022-09-04T09:39:29.407Z,100085.59
2022-09-04T09:42:15.381Z,100089.09
2022-09-04T09:44:35.834Z,100073.13
2022-09-04T09:46:56.137Z,100080.78
2022-09-04T09:49:13.898Z,100076.44
2022-09-04T09:52:01.009Z,100080.78
2022-09-04T09:54:13.489Z,100073.38
2022-09-04T09:56:40.957Z,100076.56
2022-09-04T09:58:49.514Z,100077.16
2022-09-04T10:01:08.582Z,100073.69
2022-09-04T10:03:32.606Z,100074.25
2022-09-04T10:05:59.481Z,100068.16
2022-09-04T10:08:23.345Z,100068.78
2022-09-04T10:10:54.301Z,100069.19
2022-09-04T10:13:11.420Z,100077.41
2022-09-04T10:15:46.677Z,100075.06
2022-09-04T10:18:23.417Z,100080.53
2022-09-04T10:21:01.804Z,100080.44
2022-09-04T10:23:10.026Z,100072.47
2022-09-04T10:25:43.123Z,100089.16
2022-09-04T10:28:06.696Z,100079.31
2022-09-04T10:30:19.330Z,100082.47
2022-09-04T10:32:33.730Z,100084.22
2022-09-04T10:34:46.652Z,100072.72
2022-09-04T10:37:10.933Z,100073.75
2022-09-04T10:40:02.744Z,100078.97
2022-09-04T10:42:26.297Z,100074.78
2022-09-04T10:44:31.119Z,100066.75
2022-09-04T10:47:09.645Z,100065.16
2022-09-04T10:49:30.578Z,100066.59
2022-09-04T10:52:09.254Z,100068.59
2022-09-04T10:54:26.634Z,100068.38
2022-09-04T10:56:50.115Z,100069.31
2022-09-04T10:59:09.948Z,100072.03
2022-09-04T11:01:32.555Z,100069.91
2022-09-04T11:03:44.404Z,100061.44
2022-09-04T11:06:12.245Z,100068.91
2022-09-04T11:08:23.671Z,100062.28
2022-09-04T11:10:37.146Z,100063.84
2022-09-04T11:13:04.136Z,100061.66
2022-09-04T11:15:27.481Z,100059.19
2022-09-04T11:17:42.826Z,100062.13
2022-09-04T11:20:18.512Z,100061.56
2022-09-04T11:23:10.018Z,100060.16
2022-09-04T11:25:32.195Z,100053.06
2022-09-04T11:27:59.732Z,100057.09
2022-09-04T11:30:16.896Z,100053.38
2022-09-04T11:32:36.677Z,100050.06
2022-09-04T11:34:52.135Z,100062.13
2022-09-04T11:37:29.318Z,100056.94
2022-09-04T11:39:39.289Z,100057.56
2022-09-04T11:41:59.707Z,100058.97
2022-09-04T11:44:22.303Z,100044.31
2022-09-04T11:46:30.283Z,100055.13
2022-09-04T11:48:57.634Z,100050.13
2022-09-04T11:51:40.603Z,100051.56
2022-09-04T11:54:21.114Z,100049.97
2022-09-04T11:56:34.816Z,100042.84
2022-09-04T11:58:52.272Z,100042.78
2022-09-04T12:01:16.435Z,100052.31
2022-09-04T12:03:42.338Z,100048.59
2022-09-04T12:05:50.815Z,100057.03
2022-09-04T12:08:11.329Z,100052.66
2022-09-04T12:10:33.332Z,100048.38
2022-09-04T12:13:15.243Z,100040.78
2022-09-04T12:15:23.310Z,100037.25
2022-09-04T12:17:56.539Z,100038.00
2022-09-04T12:20:14.964Z,100025.38
2022-09-04T12:22:52.790Z,100029.81
2022-09-04T12:25:03.706Z,100031.72
2022-09-04T12:27:11.477Z,100033.44
2022-09-04T12:29:13.314Z,100030.88
2022-09-04T12:31:47.051Z,100028.78
2022-09-04T12:34:18.486Z,100034.19
2022-09-04T12:36:42.338Z,100029.72
2022-09-04T12:39:01.468Z,100029.88
2022-09-04T12:41:03.368Z,100024.81
2022-09-04T12:43:52.399Z,100029.34
2022-09-04T12:46:22.035Z,100024.81
2022-09-04T12:48:42.907Z,100022.56
2022-09-04T12:51:01.014Z,100021.97
2022-09-04T12:53:59.612Z,100017.06
2022-09-04T12:56:45.921Z,100021.09
2022-09-04T12:59:17.974Z,100018.16
2022-09-04T13:01:32.176Z,100015.97
2022-09-04T13:04:01.507Z,100016.81
2022-09-04T13:06:25.889Z,100009.97
2022-09-04T13:09:00.145Z,100010.72
2022-09-04T13:11:29.511Z,100003.09
2022-09-04T13:13:50.178Z,100009.19
2022-09-04T13:16:04.444Z,100008.88
2022-09-04T13:18:58.765Z,100000.91
2022-09-04T13:21:28.188Z,99998.38
2022-09-04T13:23:37.008Z,99996.19
2022-09-04T13:25:59.067Z,100004.94
2022-09-04T13:28:07.276Z,100001.78
2022-09-04T13:30:21.933Z,100001.44
2022-09-04T13:32:45.705Z,100004.16
2022-09-04T13:34:58.748Z,100011.59
2022-09-04T13:37:13.886Z,99997.91
2022-09-04T13:39:39.815Z,99998.63
2022-09-04T13:42:21.006Z,100004.00
2022-09-04T13:44:38.627Z,100003.09
2022-09-04T13:46:53.832Z,99998.78
2022-09-04T13:49:04.990Z,99999.97
2022-09-04T13:51:30.048Z,99995.97
2022-09-04T13:54:10.370Z,100001.72
2022-09-04T13:56:28.623Z,100003.28
2022-09-04T13:58:35.303Z,100006.44
2022-09-04T14:00:46.072Z,100009.34
2022-09-04T14:02:55.952Z,100003.34
2022-09-04T14:05:06.149Z,100004.09
2022-09-04T14:07:22.675Z,100001.69
2022-09-04T14:09:24.884Z,100000.69
2022-09-04T14:11:37.545Z,99995.88
2022-09-04T14:13:58.465Z,100003.09
2022-09-04T14:16:09.173Z,99996.94
2022-09-04T14:18:45.646Z,100005.56
2022-09-04T14:21:01.317Z,100006.91
2022-09-04T14:23:20.497Z,100000.47
2022-09-04T14:25:42.590Z,100007.03
2022-09-04T14:28:13.398Z,100002.22
2022-09-04T14:30:18.834Z,100003.81
2022-09-04T14:32:32.976Z,100006.25
2022-09-04T14:35:22.967Z,100005.72
2022-09-04T14:37:59.491Z,100007.78
2022-09-04T14:40:13.685Z,100010.00
2022-09-04T14:42:41.755Z,100012.22
2022-09-04T14:45:02.675Z,100013.50
2022-09-04T14:47:09.845Z,100018.44
2022-09-04T14:49:17.372Z,100018.94
2022-09-04T14:51:22.455Z,100018.31
2022-09-04T14:53:32.198Z,100020.50
2022-09-04T14:55:42.735Z,100013.81
2022-09-04T14:57:47.638Z,100012.75
2022-09-04T15:00:10.523Z,100013.22
2022-09-04T15:02:12.557Z,100014.78
2022-09-04T15:04:30.558Z,100004.88
2022-09-04T15:07:09.846Z,100009.28
2022-09-04T15:09:29.332Z,100016.28
2022-09-04T15:11:37.642Z,100007.09
2022-09-04T15:13:53.601Z,100019.13
2022-09-04T15:16:28.611Z,100019.84
2022-09-04T15:18:39.293Z,100014.84
2022-09-04T15:21:06.751Z,100011.78
2022-09-04T15:23:22.561Z,100012.63
2022-09-04T15:25:57.651Z,100008.06
2022-09-04T15:28:05.534Z,100008.78
2022-09-04T15:30:21.973Z,100014.69
2022-09-04T15:32:28.283Z,100014.13
2022-09-04T15:34:32.177Z,100019.84
2022-09-04T15:36:39.416Z,100012.72
2022-09-04T15:38:50.870Z,100014.38
2022-09-04T15:41:15.780Z,100018.56
2022-09-04T15:43:17.884Z,100016.88
2022-09-04T15:45:24.484Z,100018.03
2022-09-04T15:47:38.680Z,100017.03
2022-09-04T15:49:49.234Z,100023.81
2022-09-04T15:52:24.467Z,100019.47
2022-09-04T15:54:55.301Z,100016.72
2022-09-04T15:57:43.118Z,100023.81
2022-09-04T15:59:55.093Z,100027.44
2022-09-04T16:02:12.884Z,100019.16
2022-09-04T16:04:45.634Z,100018.63
2022-09-04T16:06:54.695Z,100021.38
2022-09-04T16:09:07.329Z,100021.19
2022-09-04T16:11:22.074Z,100026.19
2022-09-04T16:13:27.273Z,100022.38
2022-09-04T16:15:35.659Z,100026.91
2022-09-04T16:17:47.471Z,100026.31
2022-09-04T16:20:20.392Z,100015.88
2022-09-04T16:22:36.556Z,100022.38
2022-09-04T16:24:47.436Z,100025.47
2022-09-04T16:26:53.352Z,100025.31
2022-09-04T16:29:03.708Z,100029.06
2022-09-04T16:31:14.739Z,100025.00
2022-09-04T16:33:35.321Z,100025.50
2022-09-04T16:35:45.113Z,100032.19
2022-09-04T16:38:10.981Z,100037.50
2022-09-04T16:40:22.759Z,100032.78
2022-09-04T16:42:31.034Z,100033.81
2022-09-04T16:44:39.939Z,100024.38
2022-09-04T16:47:06.119Z,100034.56
2022-09-04T16:49:19.778Z,100027.56
2022-09-04T16:51:39.656Z,100033.09
2022-09-04T16:54:10.135Z,100030.38
2022-09-04T16:56:37.904Z,100033.13
2022-09-04T16:59:09.740Z,100032.25
2022-09-04T17:01:16.641Z,100041.81
2022-09-04T17:03:25.164Z,100044.44
2022-09-04T17:05:38.593Z,100042.88
2022-09-04T17:07:49.872Z,100045.63
2022-09-04T17:10:15.283Z,100047.81
2022-09-04T17:12:48.298Z,100061.00
2022-09-04T17:14:53.828Z,100054.19
2022-09-04T17:17:30.696Z,100054.50
2022-09-04T17:19:34.257Z,100063.47
2022-09-04T17:29:03.186Z,100071.59
2022-09-04T17:29:08.971Z,100073.34
2022-09-04T17:29:10.933Z,100078.59
2022-09-04T17:30:33.747Z,100082.78
2022-09-04T17:37:31.557Z,100088.28
2022-09-04T17:40:33.802Z,100088.59
2022-09-04T17:40:50.562Z,100087.56
2022-09-04T17:41:40.012Z,100081.06
2022-09-04T17:43:58.771Z,100089.16
2022-09-04T17:46:17.269Z,100082.22
2022-09-04T17:48:27.797Z,100085.72
2022-09-04T17:50:30.267Z,100095.25
2022-09-04T17:52:36.991Z,100096.56
2022-09-04T17:54:49.418Z,100092.06
2022-09-04T17:56:59.566Z,100090.78
2022-09-04T17:59:09.505Z,100095.44
2022-09-04T18:01:53.682Z,100096.28
2022-09-04T18:04:21.540Z,100099.47
2022-09-04T18:06:28.635Z,100102.53
2022-09-04T18:08:50.358Z,100104.56
2022-09-04T18:10:54.581Z,100100.19
2022-09-04T18:13:37.157Z,100100.78
2022-09-04T18:15:52.297Z,100099.03
2022-09-04T18:17:59.741Z,100104.69
2022-09-04T18:20:14.478Z,100105.13
2022-09-04T18:22:31.925Z,100107.16
2022-09-04T18:24:43.971Z,100104.09
2022-09-04T18:26:46.961Z,100117.00
2022-09-04T18:29:14.058Z,100114.66
2022-09-04T18:34:36.398Z,100120.13
2022-09-04T18:37:12.806Z,100121.63
2022-09-04T18:37:44.979Z,100129.41
2022-09-04T18:39:51.993Z,100124.19
2022-09-04T18:47:50.560Z,100136.34
2022-09-04T18:50:38.907Z,100144.25
2022-09-04T18:50:38.908Z,100132.56
2022-09-04T18:50:51.444Z,100151.34
2022-09-04T18:52:30.041Z,100154.53
2022-09-04T18:54:44.024Z,100152.75
2022-09-04T18:56:53.187Z,100160.75
2022-09-04T18:59:06.101Z,100160.59
2022-09-04T19:01:16.977Z,100168.13
2022-09-04T19:03:37.858Z,100166.50
2022-09-04T19:05:45.481Z,100173.44
2022-09-04T19:08:00.019Z,100174.41
2022-09-04T19:10:11.935Z,100171.50
2022-09-04T19:12:20.595Z,100177.00
2022-09-04T19:14:27.092Z,100178.72
2022-09-04T19:17:08.128Z,100173.38
2022-09-04T19:19:18.248Z,100174.69
2022-09-04T19:21:31.755Z,100169.31
2022-09-04T19:24:02.554Z,100171.22
2022-09-04T19:26:47.559Z,100171.78
2022-09-04T19:29:22.467Z,100182.13
2022-09-04T19:31:37.474Z,100175.41
2022-09-04T19:33:49.054Z,100171.28
2022-09-04T19:36:11.041Z,100180.47
2022-09-04T19:42:50.902Z,100178.94
2022-09-04T19:46:01.270Z,100182.56
2022-09-04T19:46:15.862Z,100174.78
2022-09-04T19:47:03.694Z,100179.28
2022-09-04T19:51:13.482Z,100179.88
2022-09-04T19:53:35.805Z,100180.91
2022-09-04T19:54:11.105Z,100174.66
2022-09-04T19:56:28.503Z,100174.31
2022-09-04T19:58:44.179Z,100176.78
2022-09-04T20:00:54.835Z,100177.06
2022-09-04T20:03:05.602Z,100182.81
2022-09-04T20:05:32.810Z,100181.50
2022-09-04T20:07:48.848Z,100187.09
2022-09-04T20:09:55.429Z,100197.09
2022-09-04T20:12:10.772Z,100190.41
2022-09-04T20:14:22.072Z,100188.03
2022-09-04T20:16:47.723Z,100194.03
2022-09-04T20:18:56.847Z,100191.28
2022-09-04T20:21:26.956Z,100196.81
2022-09-04T20:24:01.807Z,100191.69
2022-09-04T20:26:28.916Z,100194.72
2022-09-04T20:28:47.811Z,100198.31
2022-09-04T20:31:35.845Z,100191.91
2022-09-04T20:33:44.275Z,100193.78
2022-09-04T20:35:55.437Z,100198.41
2022-09-04T20:38:12.262Z,100197.94
2022-09-04T20:40:44.452Z,100189.59
2022-09-04T20:43:05.393Z,100204.19
2022-09-04T20:48:12.631Z,100192.97
2022-09-04T20:52:42.204Z,100193.94
2022-09-04T20:52:56.706Z,100198.19
2022-09-04T20:53:28.351Z,100201.19
2022-09-04T20:55:57.047Z,100207.28
2022-09-04T21:03:07.737Z,100203.31
2022-09-04T21:03:19.487Z,100212.44
2022-09-04T21:03:34.973Z,100208.56
2022-09-04T21:06:07.978Z,100221.75
2022-09-04T21:08:48.541Z,100213.28
2022-09-04T21:10:59.632Z,100210.03
2022-09-04T21:13:21.415Z,100218.38
2022-09-04T21:15:29.048Z,100210.03
2022-09-04T21:17:49.679Z,100216.75
2022-09-04T21:20:25.734Z,100211.53
2022-09-04T21:22:39.440Z,100215.78
2022-09-04T21:24:41.680Z,100216.00
2022-09-04T21:27:11.067Z,100222.00
2022-09-04T21:29:34.594Z,100217.63
2022-09-04T21:31:58.507Z,100215.91
2022-09-04T21:34:19.002Z,100223.88
2022-09-04T21:37:01.318Z,100222.88
2022-09-04T21:39:31.342Z,100221.16
2022-09-04T21:41:45.799Z,100214.75
2022-09-04T21:44:25.141Z,100220.66
2022-09-04T21:46:46.411Z,100222.00
2022-09-04T21:49:26.610Z,100220.25
2022-09-04T21:51:40.925Z,100224.38
2022-09-04T21:54:01.541Z,100232.59
2022-09-04T22:02:25.467Z,100226.59
2022-09-04T22:02:32.420Z,100237.72
2022-09-04T22:02:44.809Z,100237.81
2022-09-04T22:04:44.446Z,100231.47
2022-09-04T22:11:31.397Z,100233.09
2022-09-04T22:13:40.449Z,100237.47
2022-09-04T22:13:43.609Z,100233.09
2022-09-04T22:15:16.592Z,100230.34
2022-09-04T22:18:00.730Z,100236.19
2022-09-04T22:20:43.082Z,100226.25
2022-09-04T22:23:06.701Z,100233.47
2022-09-04T22:25:57.096Z,100226.59
2022-09-04T22:28:43.517Z,100239.81
2022-09-04T22:31:29.705Z,100232.44
2022-09-04T22:34:15.040Z,100233.47
2022-09-04T22:36:41.512Z,100238.53
2022-09-04T22:39:08.226Z,100231.09
2022-09-04T22:41:41.947Z,100233.94
2022-09-04T22:44:02.445Z,100233.69
2022-09-04T22:46:31.242Z,100238.78
2022-09-04T22:49:13.281Z,100234.19
2022-09-04T22:51:46.806Z,100230.69
2022-09-04T22:54:03.405Z,100236.41
2022-09-04T22:56:24.749Z,100235.28
2022-09-04T22:58:51.724Z,100233.91
2022-09-04T23:01:21.419Z,100234.69
2022-09-04T23:03:45.651Z,100227.75
2022-09-04T23:09:06.097Z,100236.97
2022-09-04T23:13:48.066Z,100234.50
2022-09-04T23:13:49.104Z,100230.47
2022-09-04T23:14:45.712Z,100231.84
2022-09-04T23:17:09.999Z,100235.81
2022-09-04T23:23:00.029Z,100232.72
2022-09-04T23:26:39.013Z,100234.06
2022-09-04T23:26:43.578Z,100234.53
2022-09-04T23:27:29.345Z,100231.91
2022-09-04T23:29:49.853Z,100229.44
2022-09-04T23:32:07.450Z,100233.28
2022-09-04T23:34:29.363Z,100229.88
2022-09-04T23:36:52.058Z,100224.53
2022-09-04T23:39:16.819Z,100218.66
2022-09-04T23:41:52.957Z,100228.84
2022-09-04T23:44:25.448Z,100229.34
2022-09-04T23:46:46.170Z,100232.41
2022-09-04T23:49:19.205Z,100229.91
2022-09-04T23:52:05.009Z,100233.75
2022-09-04T23:54:12.742Z,100232.75
2022-09-04T23:56:35.826Z,100228.53
2022-09-04T23:59:19.014Z,100233.75
